sensor_id;sensor_type;location;lat;lon;timestamp;temperature;humidity
2639;DHT22;1329;51.384;7.122;2023-05-07T00:00:40;17.30;38.20
2639;DHT22;1329;51.384;7.122;2023-05-07T00:03:12;17.30;40.00
2639;DHT22;1329;51.384;7.122;2023-05-07T00:05:43;17.30;40.40
2639;DHT22;1329;51.384;7.122;2023-05-07T00:08:21;17.30;39.80
2639;DHT22;1329;51.384;7.122;2023-05-07T00:11:04;17.30;40.90
2639;DHT22;1329;51.384;7.122;2023-05-07T00:13:37;17.30;42.00
2639;DHT22;1329;51.384;7.122;2023-05-07T00:16:04;17.30;42.00
2639;DHT22;1329;51.384;7.122;2023-05-07T00:18:38;17.20;40.60
2639;DHT22;1329;51.384;7.122;2023-05-07T00:21:16;17.20;40.10
2639;DHT22;1329;51.384;7.122;2023-05-07T00:23:55;17.20;41.50
2639;DHT22;1329;51.384;7.122;2023-05-07T00:26:25;17.20;41.10
2639;DHT22;1329;51.384;7.122;2023-05-07T00:28:55;17.20;40.50
2639;DHT22;1329;51.384;7.122;2023-05-07T00:31:23;17.10;41.90
2639;DHT22;1329;51.384;7.122;2023-05-07T00:34:05;17.10;42.90
2639;DHT22;1329;51.384;7.122;2023-05-07T00:36:38;17.10;43.20
2639;DHT22;1329;51.384;7.122;2023-05-07T00:39:09;17.10;46.20
2639;DHT22;1329;51.384;7.122;2023-05-07T00:41:37;17.10;45.00
2639;DHT22;1329;51.384;7.122;2023-05-07T00:44:04;17.10;44.50
2639;DHT22;1329;51.384;7.122;2023-05-07T00:46:32;17.10;45.40
2639;DHT22;1329;51.384;7.122;2023-05-07T00:49:00;17.10;46.10
2639;DHT22;1329;51.384;7.122;2023-05-07T00:51:29;17.10;46.20
2639;DHT22;1329;51.384;7.122;2023-05-07T00:53:56;17.10;46.40
2639;DHT22;1329;51.384;7.122;2023-05-07T00:56:25;17.10;46.20
2639;DHT22;1329;51.384;7.122;2023-05-07T00:58:52;17.10;46.10
2639;DHT22;1329;51.384;7.122;2023-05-07T01:01:19;17.10;44.20
2639;DHT22;1329;51.384;7.122;2023-05-07T01:03:46;17.00;42.70
2639;DHT22;1329;51.384;7.122;2023-05-07T01:06:13;17.00;42.20
2639;DHT22;1329;51.384;7.122;2023-05-07T01:08:43;17.00;41.80
2639;DHT22;1329;51.384;7.122;2023-05-07T01:11:10;16.90;42.30
2639;DHT22;1329;51.384;7.122;2023-05-07T01:13:39;16.90;43.30
2639;DHT22;1329;51.384;7.122;2023-05-07T01:16:08;16.90;45.50
2639;DHT22;1329;51.384;7.122;2023-05-07T01:18:35;16.80;46.70
2639;DHT22;1329;51.384;7.122;2023-05-07T01:21:04;16.80;47.90
2639;DHT22;1329;51.384;7.122;2023-05-07T01:23:33;16.80;49.20
2639;DHT22;1329;51.384;7.122;2023-05-07T01:26:01;16.80;50.00
2639;DHT22;1329;51.384;7.122;2023-05-07T01:28:37;16.80;49.40
2639;DHT22;1329;51.384;7.122;2023-05-07T01:31:04;16.80;50.20
2639;DHT22;1329;51.384;7.122;2023-05-07T01:33:34;16.70;50.90
2639;DHT22;1329;51.384;7.122;2023-05-07T01:36:04;16.70;52.70
2639;DHT22;1329;51.384;7.122;2023-05-07T01:38:33;16.70;51.50
2639;DHT22;1329;51.384;7.122;2023-05-07T01:41:01;16.70;51.70
2639;DHT22;1329;51.384;7.122;2023-05-07T01:43:29;16.70;50.40
2639;DHT22;1329;51.384;7.122;2023-05-07T01:45:57;16.70;50.10
2639;DHT22;1329;51.384;7.122;2023-05-07T01:48:25;16.70;50.50
2639;DHT22;1329;51.384;7.122;2023-05-07T01:50:52;16.70;50.00
2639;DHT22;1329;51.384;7.122;2023-05-07T01:53:21;16.70;50.80
2639;DHT22;1329;51.384;7.122;2023-05-07T01:55:49;16.70;53.20
2639;DHT22;1329;51.384;7.122;2023-05-07T01:58:16;16.60;53.30
2639;DHT22;1329;51.384;7.122;2023-05-07T02:00:43;16.60;52.60
2639;DHT22;1329;51.384;7.122;2023-05-07T02:03:11;16.60;53.00
2639;DHT22;1329;51.384;7.122;2023-05-07T02:05:37;16.60;53.30
2639;DHT22;1329;51.384;7.122;2023-05-07T02:08:04;16.60;54.00
2639;DHT22;1329;51.384;7.122;2023-05-07T02:10:31;16.60;54.70
2639;DHT22;1329;51.384;7.122;2023-05-07T02:13:00;16.50;55.20
2639;DHT22;1329;51.384;7.122;2023-05-07T02:15:27;16.50;56.80
2639;DHT22;1329;51.384;7.122;2023-05-07T02:18:02;16.50;55.80
2639;DHT22;1329;51.384;7.122;2023-05-07T02:20:30;16.50;58.30
2639;DHT22;1329;51.384;7.122;2023-05-07T02:22:57;16.50;54.80
2639;DHT22;1329;51.384;7.122;2023-05-07T02:25:24;16.50;54.60
2639;DHT22;1329;51.384;7.122;2023-05-07T02:27:51;16.50;54.70
2639;DHT22;1329;51.384;7.122;2023-05-07T02:30:19;16.40;55.00
2639;DHT22;1329;51.384;7.122;2023-05-07T02:32:46;16.40;56.30
2639;DHT22;1329;51.384;7.122;2023-05-07T02:35:13;16.40;55.10
2639;DHT22;1329;51.384;7.122;2023-05-07T02:37:40;16.40;54.90
2639;DHT22;1329;51.384;7.122;2023-05-07T02:40:08;16.40;54.30
2639;DHT22;1329;51.384;7.122;2023-05-07T02:42:36;16.40;55.20
2639;DHT22;1329;51.384;7.122;2023-05-07T02:45:04;16.30;53.20
2639;DHT22;1329;51.384;7.122;2023-05-07T02:47:33;16.30;52.80
2639;DHT22;1329;51.384;7.122;2023-05-07T02:50:00;16.30;53.00
2639;DHT22;1329;51.384;7.122;2023-05-07T02:52:27;16.30;52.00
2639;DHT22;1329;51.384;7.122;2023-05-07T02:54:54;16.20;51.90
2639;DHT22;1329;51.384;7.122;2023-05-07T02:57:21;16.20;51.60
2639;DHT22;1329;51.384;7.122;2023-05-07T02:59:49;16.20;50.70
2639;DHT22;1329;51.384;7.122;2023-05-07T03:02:16;16.10;50.20
2639;DHT22;1329;51.384;7.122;2023-05-07T03:04:47;16.10;50.50
2639;DHT22;1329;51.384;7.122;2023-05-07T03:07:14;16.00;51.20
2639;DHT22;1329;51.384;7.122;2023-05-07T03:09:41;16.10;50.00
2639;DHT22;1329;51.384;7.122;2023-05-07T03:12:08;16.00;50.40
2639;DHT22;1329;51.384;7.122;2023-05-07T03:14:35;15.90;51.00
2639;DHT22;1329;51.384;7.122;2023-05-07T03:17:02;15.90;51.70
2639;DHT22;1329;51.384;7.122;2023-05-07T03:19:29;15.90;52.60
2639;DHT22;1329;51.384;7.122;2023-05-07T03:21:58;15.90;53.60
2639;DHT22;1329;51.384;7.122;2023-05-07T03:24:25;15.90;55.10
2639;DHT22;1329;51.384;7.122;2023-05-07T03:26:52;15.80;55.00
2639;DHT22;1329;51.384;7.122;2023-05-07T03:29:18;15.80;55.70
2639;DHT22;1329;51.384;7.122;2023-05-07T03:31:46;15.80;56.60
2639;DHT22;1329;51.384;7.122;2023-05-07T03:34:13;15.80;57.60
2639;DHT22;1329;51.384;7.122;2023-05-07T03:36:40;15.80;58.40
2639;DHT22;1329;51.384;7.122;2023-05-07T03:39:08;15.70;58.70
2639;DHT22;1329;51.384;7.122;2023-05-07T03:41:35;15.70;59.20
2639;DHT22;1329;51.384;7.122;2023-05-07T03:44:02;15.70;58.60
2639;DHT22;1329;51.384;7.122;2023-05-07T03:46:30;15.70;58.30
2639;DHT22;1329;51.384;7.122;2023-05-07T03:48:58;15.70;57.90
2639;DHT22;1329;51.384;7.122;2023-05-07T03:51:25;15.70;57.70
2639;DHT22;1329;51.384;7.122;2023-05-07T03:53:52;15.70;56.50
2639;DHT22;1329;51.384;7.122;2023-05-07T03:56:21;15.60;56.30
2639;DHT22;1329;51.384;7.122;2023-05-07T03:58:48;15.60;57.00
2639;DHT22;1329;51.384;7.122;2023-05-07T04:01:15;15.60;56.50
2639;DHT22;1329;51.384;7.122;2023-05-07T04:03:42;15.60;57.40
2639;DHT22;1329;51.384;7.122;2023-05-07T04:06:08;15.50;58.40
2639;DHT22;1329;51.384;7.122;2023-05-07T04:08:36;15.60;59.40
2639;DHT22;1329;51.384;7.122;2023-05-07T04:11:03;15.60;60.00
2639;DHT22;1329;51.384;7.122;2023-05-07T04:13:31;15.60;59.80
2639;DHT22;1329;51.384;7.122;2023-05-07T04:16:00;15.50;60.90
2639;DHT22;1329;51.384;7.122;2023-05-07T04:18:28;15.50;59.40
2639;DHT22;1329;51.384;7.122;2023-05-07T04:20:55;15.50;59.10
2639;DHT22;1329;51.384;7.122;2023-05-07T04:23:22;15.50;59.10
2639;DHT22;1329;51.384;7.122;2023-05-07T04:25:50;15.50;59.90
2639;DHT22;1329;51.384;7.122;2023-05-07T04:28:17;15.50;61.30
2639;DHT22;1329;51.384;7.122;2023-05-07T04:30:46;15.50;62.80
2639;DHT22;1329;51.384;7.122;2023-05-07T04:33:14;15.50;64.80
2639;DHT22;1329;51.384;7.122;2023-05-07T04:35:42;15.50;66.20
2639;DHT22;1329;51.384;7.122;2023-05-07T04:38:09;15.50;68.40
2639;DHT22;1329;51.384;7.122;2023-05-07T04:40:36;15.50;71.10
2639;DHT22;1329;51.384;7.122;2023-05-07T04:43:04;15.50;71.40
2639;DHT22;1329;51.384;7.122;2023-05-07T04:45:32;15.50;71.70
2639;DHT22;1329;51.384;7.122;2023-05-07T04:48:00;15.60;72.00
2639;DHT22;1329;51.384;7.122;2023-05-07T04:50:27;15.60;72.70
2639;DHT22;1329;51.384;7.122;2023-05-07T04:52:54;15.60;72.90
2639;DHT22;1329;51.384;7.122;2023-05-07T04:55:21;15.60;73.20
2639;DHT22;1329;51.384;7.122;2023-05-07T04:57:48;15.60;74.30
2639;DHT22;1329;51.384;7.122;2023-05-07T05:00:15;15.70;75.40
2639;DHT22;1329;51.384;7.122;2023-05-07T05:02:45;15.70;75.80
2639;DHT22;1329;51.384;7.122;2023-05-07T05:05:13;15.70;75.70
2639;DHT22;1329;51.384;7.122;2023-05-07T05:07:40;15.80;77.40
2639;DHT22;1329;51.384;7.122;2023-05-07T05:10:07;15.80;78.60
2639;DHT22;1329;51.384;7.122;2023-05-07T05:12:34;15.80;79.90
2639;DHT22;1329;51.384;7.122;2023-05-07T05:15:01;15.90;80.50
2639;DHT22;1329;51.384;7.122;2023-05-07T05:17:28;15.90;81.50
2639;DHT22;1329;51.384;7.122;2023-05-07T05:19:55;15.90;81.80
2639;DHT22;1329;51.384;7.122;2023-05-07T05:22:24;16.00;81.90
2639;DHT22;1329;51.384;7.122;2023-05-07T05:24:51;16.00;82.10
2639;DHT22;1329;51.384;7.122;2023-05-07T05:27:18;16.10;81.80
2639;DHT22;1329;51.384;7.122;2023-05-07T05:29:45;16.10;81.70
2639;DHT22;1329;51.384;7.122;2023-05-07T05:32:11;16.20;82.10
2639;DHT22;1329;51.384;7.122;2023-05-07T05:34:38;16.10;82.50
2639;DHT22;1329;51.384;7.122;2023-05-07T05:37:05;16.20;84.20
2639;DHT22;1329;51.384;7.122;2023-05-07T05:39:34;16.30;86.40
2639;DHT22;1329;51.384;7.122;2023-05-07T05:42:01;16.30;88.00
2639;DHT22;1329;51.384;7.122;2023-05-07T05:44:28;16.40;89.00
2639;DHT22;1329;51.384;7.122;2023-05-07T05:46:55;16.40;89.70
2639;DHT22;1329;51.384;7.122;2023-05-07T05:49:23;16.50;90.10
2639;DHT22;1329;51.384;7.122;2023-05-07T05:51:50;16.60;90.30
2639;DHT22;1329;51.384;7.122;2023-05-07T05:54:17;16.60;90.40
2639;DHT22;1329;51.384;7.122;2023-05-07T05:56:45;16.80;90.60
2639;DHT22;1329;51.384;7.122;2023-05-07T05:59:12;16.80;90.30
2639;DHT22;1329;51.384;7.122;2023-05-07T06:01:39;16.80;90.00
2639;DHT22;1329;51.384;7.122;2023-05-07T06:04:06;16.90;90.40
2639;DHT22;1329;51.384;7.122;2023-05-07T06:06:33;16.90;90.30
2639;DHT22;1329;51.384;7.122;2023-05-07T06:09:00;17.00;90.80
2639;DHT22;1329;51.384;7.122;2023-05-07T06:11:27;17.00;91.30
2639;DHT22;1329;51.384;7.122;2023-05-07T06:13:56;17.10;91.30
2639;DHT22;1329;51.384;7.122;2023-05-07T06:16:24;17.20;91.10
2639;DHT22;1329;51.384;7.122;2023-05-07T06:18:51;17.30;90.90
2639;DHT22;1329;51.384;7.122;2023-05-07T06:21:18;17.30;90.80
2639;DHT22;1329;51.384;7.122;2023-05-07T06:23:45;17.40;90.30
2639;DHT22;1329;51.384;7.122;2023-05-07T06:26:12;17.40;89.60
2639;DHT22;1329;51.384;7.122;2023-05-07T06:28:39;17.50;89.00
2639;DHT22;1329;51.384;7.122;2023-05-07T06:31:15;17.50;88.00
2639;DHT22;1329;51.384;7.122;2023-05-07T06:33:43;17.60;84.00
2639;DHT22;1329;51.384;7.122;2023-05-07T06:36:11;17.60;86.40
2639;DHT22;1329;51.384;7.122;2023-05-07T06:38:38;17.70;87.40
2639;DHT22;1329;51.384;7.122;2023-05-07T06:41:05;17.80;88.20
2639;DHT22;1329;51.384;7.122;2023-05-07T06:43:33;17.80;87.70
2639;DHT22;1329;51.384;7.122;2023-05-07T06:46:00;17.90;87.20
2639;DHT22;1329;51.384;7.122;2023-05-07T06:48:28;17.90;86.90
2639;DHT22;1329;51.384;7.122;2023-05-07T06:50:55;18.00;83.50
2639;DHT22;1329;51.384;7.122;2023-05-07T06:53:23;18.10;83.00
2639;DHT22;1329;51.384;7.122;2023-05-07T06:55:50;18.10;81.90
2639;DHT22;1329;51.384;7.122;2023-05-07T06:58:17;18.20;81.50
2639;DHT22;1329;51.384;7.122;2023-05-07T07:00:44;18.20;79.90
2639;DHT22;1329;51.384;7.122;2023-05-07T07:03:11;18.30;78.80
2639;DHT22;1329;51.384;7.122;2023-05-07T07:05:40;18.40;78.60
2639;DHT22;1329;51.384;7.122;2023-05-07T07:08:07;18.40;74.80
2639;DHT22;1329;51.384;7.122;2023-05-07T07:10:34;18.50;76.00
2639;DHT22;1329;51.384;7.122;2023-05-07T07:13:01;18.50;75.00
2639;DHT22;1329;51.384;7.122;2023-05-07T07:15:28;18.50;73.20
2639;DHT22;1329;51.384;7.122;2023-05-07T07:17:55;18.60;72.00
2639;DHT22;1329;51.384;7.122;2023-05-07T07:20:22;18.60;70.90
2639;DHT22;1329;51.384;7.122;2023-05-07T07:22:50;18.60;71.10
2639;DHT22;1329;51.384;7.122;2023-05-07T07:25:17;18.70;69.40
2639;DHT22;1329;51.384;7.122;2023-05-07T07:27:45;18.80;71.30
2639;DHT22;1329;51.384;7.122;2023-05-07T07:30:12;18.80;70.50
2639;DHT22;1329;51.384;7.122;2023-05-07T07:32:39;18.80;69.60
2639;DHT22;1329;51.384;7.122;2023-05-07T07:35:07;18.80;68.50
2639;DHT22;1329;51.384;7.122;2023-05-07T07:37:35;18.90;67.10
2639;DHT22;1329;51.384;7.122;2023-05-07T07:40:04;18.90;68.30
2639;DHT22;1329;51.384;7.122;2023-05-07T07:42:31;18.90;66.80
2639;DHT22;1329;51.384;7.122;2023-05-07T07:44:59;19.00;68.50
2639;DHT22;1329;51.384;7.122;2023-05-07T07:47:25;19.10;67.70
2639;DHT22;1329;51.384;7.122;2023-05-07T07:49:52;19.20;65.80
2639;DHT22;1329;51.384;7.122;2023-05-07T07:52:19;19.20;63.70
2639;DHT22;1329;51.384;7.122;2023-05-07T07:54:46;19.20;60.40
2639;DHT22;1329;51.384;7.122;2023-05-07T07:57:15;19.30;59.80
2639;DHT22;1329;51.384;7.122;2023-05-07T07:59:42;19.30;55.20
2639;DHT22;1329;51.384;7.122;2023-05-07T08:02:09;19.30;57.40
2639;DHT22;1329;51.384;7.122;2023-05-07T08:04:36;19.30;55.60
2639;DHT22;1329;51.384;7.122;2023-05-07T08:07:03;19.30;54.20
2639;DHT22;1329;51.384;7.122;2023-05-07T08:09:30;19.40;55.90
2639;DHT22;1329;51.384;7.122;2023-05-07T08:11:57;19.40;57.90
2639;DHT22;1329;51.384;7.122;2023-05-07T08:14:25;19.50;56.80
2639;DHT22;1329;51.384;7.122;2023-05-07T08:16:53;19.60;53.60
2639;DHT22;1329;51.384;7.122;2023-05-07T08:19:20;19.60;56.40
2639;DHT22;1329;51.384;7.122;2023-05-07T08:21:48;19.70;53.70
2639;DHT22;1329;51.384;7.122;2023-05-07T08:24:15;19.80;49.90
2639;DHT22;1329;51.384;7.122;2023-05-07T08:26:43;19.80;48.30
2639;DHT22;1329;51.384;7.122;2023-05-07T08:29:10;19.90;48.80
2639;DHT22;1329;51.384;7.122;2023-05-07T08:31:39;20.00;47.70
2639;DHT22;1329;51.384;7.122;2023-05-07T08:34:06;20.10;43.60
2639;DHT22;1329;51.384;7.122;2023-05-07T08:36:33;20.20;48.90
2639;DHT22;1329;51.384;7.122;2023-05-07T08:39:00;20.20;44.60
2639;DHT22;1329;51.384;7.122;2023-05-07T08:41:27;20.30;42.70
2639;DHT22;1329;51.384;7.122;2023-05-07T08:43:57;20.40;40.20
2639;DHT22;1329;51.384;7.122;2023-05-07T08:46:31;20.50;34.50
2639;DHT22;1329;51.384;7.122;2023-05-07T08:49:00;20.70;29.70
2639;DHT22;1329;51.384;7.122;2023-05-07T08:51:27;20.70;29.30
2639;DHT22;1329;51.384;7.122;2023-05-07T08:53:54;20.80;34.90
2639;DHT22;1329;51.384;7.122;2023-05-07T08:56:21;20.90;36.90
2639;DHT22;1329;51.384;7.122;2023-05-07T08:58:48;21.10;39.80
2639;DHT22;1329;51.384;7.122;2023-05-07T09:01:22;21.30;41.10
2639;DHT22;1329;51.384;7.122;2023-05-07T09:03:49;21.50;41.70
2639;DHT22;1329;51.384;7.122;2023-05-07T09:06:18;21.70;44.70
2639;DHT22;1329;51.384;7.122;2023-05-07T09:08:49;22.00;39.30
2639;DHT22;1329;51.384;7.122;2023-05-07T09:11:20;22.30;29.40
2639;DHT22;1329;51.384;7.122;2023-05-07T09:13:49;22.60;34.60
2639;DHT22;1329;51.384;7.122;2023-05-07T09:16:21;22.90;34.90
2639;DHT22;1329;51.384;7.122;2023-05-07T09:18:51;23.20;28.20
2639;DHT22;1329;51.384;7.122;2023-05-07T09:21:20;23.50;10.10
2639;DHT22;1329;51.384;7.122;2023-05-07T09:23:50;23.70;4.80
2639;DHT22;1329;51.384;7.122;2023-05-07T09:26:17;23.90;4.00
2639;DHT22;1329;51.384;7.122;2023-05-07T09:28:45;24.00;1.00
2639;DHT22;1329;51.384;7.122;2023-05-07T09:31:12;24.10;1.00
2639;DHT22;1329;51.384;7.122;2023-05-07T09:33:40;24.10;1.00
2639;DHT22;1329;51.384;7.122;2023-05-07T09:36:08;24.10;1.00
2639;DHT22;1329;51.384;7.122;2023-05-07T09:38:38;24.00;1.00
2639;DHT22;1329;51.384;7.122;2023-05-07T09:41:06;23.90;1.00
2639;DHT22;1329;51.384;7.122;2023-05-07T09:43:35;23.80;1.00
2639;DHT22;1329;51.384;7.122;2023-05-07T09:46:06;23.70;1.00
2639;DHT22;1329;51.384;7.122;2023-05-07T09:48:38;23.50;1.00
2639;DHT22;1329;51.384;7.122;2023-05-07T09:51:13;23.40;1.00
2639;DHT22;1329;51.384;7.122;2023-05-07T09:53:45;23.30;1.00
2639;DHT22;1329;51.384;7.122;2023-05-07T09:56:14;23.10;1.00
2639;DHT22;1329;51.384;7.122;2023-05-07T09:58:41;23.10;1.00
2639;DHT22;1329;51.384;7.122;2023-05-07T10:01:10;23.00;1.00
2639;DHT22;1329;51.384;7.122;2023-05-07T10:03:40;22.90;1.00
2639;DHT22;1329;51.384;7.122;2023-05-07T10:06:09;22.90;1.00
2639;DHT22;1329;51.384;7.122;2023-05-07T10:08:37;22.90;1.00
2639;DHT22;1329;51.384;7.122;2023-05-07T10:11:05;22.90;1.00
2639;DHT22;1329;51.384;7.122;2023-05-07T10:13:33;23.00;1.00
2639;DHT22;1329;51.384;7.122;2023-05-07T10:16:04;23.00;1.00
2639;DHT22;1329;51.384;7.122;2023-05-07T10:18:31;23.10;1.00
2639;DHT22;1329;51.384;7.122;2023-05-07T10:21:11;23.20;1.00
2639;DHT22;1329;51.384;7.122;2023-05-07T10:23:45;23.20;1.00
2639;DHT22;1329;51.384;7.122;2023-05-07T10:26:14;23.30;1.00
2639;DHT22;1329;51.384;7.122;2023-05-07T10:28:44;23.40;1.00
2639;DHT22;1329;51.384;7.122;2023-05-07T10:31:28;23.40;1.00
2639;DHT22;1329;51.384;7.122;2023-05-07T10:34:19;23.50;1.00
2639;DHT22;1329;51.384;7.122;2023-05-07T10:36:49;23.60;1.00
2639;DHT22;1329;51.384;7.122;2023-05-07T10:39:17;23.60;1.00
2639;DHT22;1329;51.384;7.122;2023-05-07T10:41:45;23.60;1.00
2639;DHT22;1329;51.384;7.122;2023-05-07T10:44:25;23.60;1.00
2639;DHT22;1329;51.384;7.122;2023-05-07T10:47:17;23.70;1.00
2639;DHT22;1329;51.384;7.122;2023-05-07T10:50:20;23.70;1.00
2639;DHT22;1329;51.384;7.122;2023-05-07T10:53:20;23.70;1.00
2639;DHT22;1329;51.384;7.122;2023-05-07T10:56:24;23.80;1.00
2639;DHT22;1329;51.384;7.122;2023-05-07T10:59:30;23.80;1.00
2639;DHT22;1329;51.384;7.122;2023-05-07T11:02:00;23.90;1.00
2639;DHT22;1329;51.384;7.122;2023-05-07T11:04:29;23.80;1.00
2639;DHT22;1329;51.384;7.122;2023-05-07T11:07:21;23.80;1.00
2639;DHT22;1329;51.384;7.122;2023-05-07T11:10:01;23.80;1.00
2639;DHT22;1329;51.384;7.122;2023-05-07T11:12:49;23.80;1.00
2639;DHT22;1329;51.384;7.122;2023-05-07T11:18:18;23.80;1.00
2639;DHT22;1329;51.384;7.122;2023-05-07T11:20:54;23.90;1.00
2639;DHT22;1329;51.384;7.122;2023-05-07T11:26:43;23.80;1.00
2639;DHT22;1329;51.384;7.122;2023-05-07T11:29:13;23.80;1.00
2639;DHT22;1329;51.384;7.122;2023-05-07T11:31:42;23.80;1.00
2639;DHT22;1329;51.384;7.122;2023-05-07T11:34:09;23.70;1.00
2639;DHT22;1329;51.384;7.122;2023-05-07T11:36:44;23.70;1.00
2639;DHT22;1329;51.384;7.122;2023-05-07T11:39:28;23.70;1.00
2639;DHT22;1329;51.384;7.122;2023-05-07T11:41:57;23.60;1.00
2639;DHT22;1329;51.384;7.122;2023-05-07T11:44:24;23.60;1.00
2639;DHT22;1329;51.384;7.122;2023-05-07T11:47:11;23.60;1.00
2639;DHT22;1329;51.384;7.122;2023-05-07T11:55:21;23.50;1.00
2639;DHT22;1329;51.384;7.122;2023-05-07T11:58:05;23.50;1.00
2639;DHT22;1329;51.384;7.122;2023-05-07T12:00:37;23.40;1.00
2639;DHT22;1329;51.384;7.122;2023-05-07T12:06:19;23.40;1.00
2639;DHT22;1329;51.384;7.122;2023-05-07T12:08:49;23.40;1.00
2639;DHT22;1329;51.384;7.122;2023-05-07T12:11:23;23.40;1.00
2639;DHT22;1329;51.384;7.122;2023-05-07T12:20:35;23.50;1.00
2639;DHT22;1329;51.384;7.122;2023-05-07T12:27:05;23.50;1.00
2639;DHT22;1329;51.384;7.122;2023-05-07T12:29:53;23.60;1.00
2639;DHT22;1329;51.384;7.122;2023-05-07T12:43:57;23.90;1.00
2639;DHT22;1329;51.384;7.122;2023-05-07T12:49:50;23.80;1.00
2639;DHT22;1329;51.384;7.122;2023-05-07T12:52:54;23.80;1.00
2639;DHT22;1329;51.384;7.122;2023-05-07T12:55:40;23.70;1.00
2639;DHT22;1329;51.384;7.122;2023-05-07T12:58:21;23.60;1.00
2639;DHT22;1329;51.384;7.122;2023-05-07T13:01:09;23.40;1.00
2639;DHT22;1329;51.384;7.122;2023-05-07T13:03:41;23.40;1.00
2639;DHT22;1329;51.384;7.122;2023-05-07T13:06:11;23.20;1.00
2639;DHT22;1329;51.384;7.122;2023-05-07T13:08:41;23.20;1.00
2639;DHT22;1329;51.384;7.122;2023-05-07T13:11:10;23.10;1.00
2639;DHT22;1329;51.384;7.122;2023-05-07T13:13:39;23.00;1.00
2639;DHT22;1329;51.384;7.122;2023-05-07T13:16:09;22.90;1.00
2639;DHT22;1329;51.384;7.122;2023-05-07T13:18:38;22.90;1.00
2639;DHT22;1329;51.384;7.122;2023-05-07T13:21:06;22.80;1.00
2639;DHT22;1329;51.384;7.122;2023-05-07T13:23:34;22.80;1.00
2639;DHT22;1329;51.384;7.122;2023-05-07T13:26:02;22.70;1.00
2639;DHT22;1329;51.384;7.122;2023-05-07T13:28:29;22.70;1.00
2639;DHT22;1329;51.384;7.122;2023-05-07T13:30:56;22.60;1.00
2639;DHT22;1329;51.384;7.122;2023-05-07T13:33:23;22.60;1.00
2639;DHT22;1329;51.384;7.122;2023-05-07T13:35:50;22.60;1.00
2639;DHT22;1329;51.384;7.122;2023-05-07T13:38:17;22.50;1.00
2639;DHT22;1329;51.384;7.122;2023-05-07T13:40:44;22.40;1.00
2639;DHT22;1329;51.384;7.122;2023-05-07T13:43:13;22.40;1.00
2639;DHT22;1329;51.384;7.122;2023-05-07T13:45:39;22.40;1.00
2639;DHT22;1329;51.384;7.122;2023-05-07T13:48:06;22.40;1.00
2639;DHT22;1329;51.384;7.122;2023-05-07T13:50:33;22.40;1.00
2639;DHT22;1329;51.384;7.122;2023-05-07T13:53:01;22.30;1.00
2639;DHT22;1329;51.384;7.122;2023-05-07T13:55:29;22.30;1.00
2639;DHT22;1329;51.384;7.122;2023-05-07T13:57:56;22.20;1.00
2639;DHT22;1329;51.384;7.122;2023-05-07T14:00:26;22.20;1.00
2639;DHT22;1329;51.384;7.122;2023-05-07T14:02:54;22.20;1.00
2639;DHT22;1329;51.384;7.122;2023-05-07T14:05:21;22.10;1.00
2639;DHT22;1329;51.384;7.122;2023-05-07T14:07:49;22.00;1.00
2639;DHT22;1329;51.384;7.122;2023-05-07T14:10:17;22.00;1.00
2639;DHT22;1329;51.384;7.122;2023-05-07T14:12:45;21.90;1.00
2639;DHT22;1329;51.384;7.122;2023-05-07T14:15:12;21.90;1.00
2639;DHT22;1329;51.384;7.122;2023-05-07T14:17:41;21.80;1.00
2639;DHT22;1329;51.384;7.122;2023-05-07T14:20:08;21.70;1.00
2639;DHT22;1329;51.384;7.122;2023-05-07T14:22:36;21.70;1.00
2639;DHT22;1329;51.384;7.122;2023-05-07T14:25:04;21.60;1.00
2639;DHT22;1329;51.384;7.122;2023-05-07T14:27:32;21.60;1.00
2639;DHT22;1329;51.384;7.122;2023-05-07T14:29:59;21.50;1.00
2639;DHT22;1329;51.384;7.122;2023-05-07T14:32:26;21.40;1.00
2639;DHT22;1329;51.384;7.122;2023-05-07T14:34:54;21.30;1.00
2639;DHT22;1329;51.384;7.122;2023-05-07T14:37:21;21.20;1.00
2639;DHT22;1329;51.384;7.122;2023-05-07T14:39:50;21.10;1.00
2639;DHT22;1329;51.384;7.122;2023-05-07T14:42:17;21.00;1.00
2639;DHT22;1329;51.384;7.122;2023-05-07T14:44:44;20.90;1.00
2639;DHT22;1329;51.384;7.122;2023-05-07T14:47:13;20.80;1.00
2639;DHT22;1329;51.384;7.122;2023-05-07T14:49:41;20.70;1.00
2639;DHT22;1329;51.384;7.122;2023-05-07T14:52:10;20.60;1.00
2639;DHT22;1329;51.384;7.122;2023-05-07T14:54:37;20.40;1.00
2639;DHT22;1329;51.384;7.122;2023-05-07T14:57:05;20.30;1.00
2639;DHT22;1329;51.384;7.122;2023-05-07T14:59:33;20.30;3.10
2639;DHT22;1329;51.384;7.122;2023-05-07T15:02:00;20.20;8.30
2639;DHT22;1329;51.384;7.122;2023-05-07T15:04:27;20.10;13.80
2639;DHT22;1329;51.384;7.122;2023-05-07T15:06:57;20.10;19.40
2639;DHT22;1329;51.384;7.122;2023-05-07T15:09:25;20.00;23.00
2639;DHT22;1329;51.384;7.122;2023-05-07T15:11:52;20.00;31.70
2639;DHT22;1329;51.384;7.122;2023-05-07T15:14:19;19.90;32.40
2639;DHT22;1329;51.384;7.122;2023-05-07T15:16:47;19.90;38.90
2639;DHT22;1329;51.384;7.122;2023-05-07T15:19:14;20.00;46.30
2639;DHT22;1329;51.384;7.122;2023-05-07T15:21:42;19.90;52.90
2639;DHT22;1329;51.384;7.122;2023-05-07T15:24:09;19.90;60.30
2639;DHT22;1329;51.384;7.122;2023-05-07T15:26:37;20.00;66.70
2639;DHT22;1329;51.384;7.122;2023-05-07T15:29:04;20.00;77.40
2639;DHT22;1329;51.384;7.122;2023-05-07T15:31:35;20.00;79.40
2639;DHT22;1329;51.384;7.122;2023-05-07T15:34:03;20.00;83.00
2639;DHT22;1329;51.384;7.122;2023-05-07T15:36:30;20.10;86.30
2639;DHT22;1329;51.384;7.122;2023-05-07T15:38:58;20.00;90.30
2639;DHT22;1329;51.384;7.122;2023-05-07T15:41:24;20.00;91.60
2639;DHT22;1329;51.384;7.122;2023-05-07T15:43:53;20.00;92.00
2639;DHT22;1329;51.384;7.122;2023-05-07T15:46:21;20.00;94.20
2639;DHT22;1329;51.384;7.122;2023-05-07T15:48:49;20.00;94.10
2639;DHT22;1329;51.384;7.122;2023-05-07T15:51:16;20.00;94.80
2639;DHT22;1329;51.384;7.122;2023-05-07T15:53:44;19.90;96.00
2639;DHT22;1329;51.384;7.122;2023-05-07T15:56:11;19.90;98.10
2639;DHT22;1329;51.384;7.122;2023-05-07T15:58:38;19.90;99.00
2639;DHT22;1329;51.384;7.122;2023-05-07T16:01:06;19.90;99.90
2639;DHT22;1329;51.384;7.122;2023-05-07T16:03:33;19.90;99.90
2639;DHT22;1329;51.384;7.122;2023-05-07T16:06:01;19.90;99.90
2639;DHT22;1329;51.384;7.122;2023-05-07T16:08:28;19.90;99.90
2639;DHT22;1329;51.384;7.122;2023-05-07T16:10:55;19.90;99.90
2639;DHT22;1329;51.384;7.122;2023-05-07T16:13:22;19.90;99.90
2639;DHT22;1329;51.384;7.122;2023-05-07T16:15:51;19.90;99.90
2639;DHT22;1329;51.384;7.122;2023-05-07T16:18:23;19.90;99.90
2639;DHT22;1329;51.384;7.122;2023-05-07T16:20:50;19.90;99.90
2639;DHT22;1329;51.384;7.122;2023-05-07T16:23:17;19.90;99.90
2639;DHT22;1329;51.384;7.122;2023-05-07T16:25:44;19.90;99.90
2639;DHT22;1329;51.384;7.122;2023-05-07T16:28:12;19.90;99.90
2639;DHT22;1329;51.384;7.122;2023-05-07T16:30:39;19.80;99.90
2639;DHT22;1329;51.384;7.122;2023-05-07T16:33:07;19.80;99.90
2639;DHT22;1329;51.384;7.122;2023-05-07T16:35:36;19.80;99.90
2639;DHT22;1329;51.384;7.122;2023-05-07T16:38:03;19.80;99.90
2639;DHT22;1329;51.384;7.122;2023-05-07T16:40:36;19.80;99.90
2639;DHT22;1329;51.384;7.122;2023-05-07T16:43:03;19.80;99.90
2639;DHT22;1329;51.384;7.122;2023-05-07T16:45:31;19.80;99.90
2639;DHT22;1329;51.384;7.122;2023-05-07T16:47:57;19.80;99.90
2639;DHT22;1329;51.384;7.122;2023-05-07T16:50:25;19.80;99.90
2639;DHT22;1329;51.384;7.122;2023-05-07T16:52:53;19.80;99.90
2639;DHT22;1329;51.384;7.122;2023-05-07T16:55:20;19.80;99.90
2639;DHT22;1329;51.384;7.122;2023-05-07T16:57:47;19.80;99.90
2639;DHT22;1329;51.384;7.122;2023-05-07T17:00:15;19.80;99.90